< < Back
Terminal Aerodrome Forecast


Current Version              Previous Versions:   1  2  3  4  5  6  7  8  9  

Terminal Aerodrome Forecast

512
FTUS42 KCHS 042320
TAFCHS
TAF
KCHS 042320Z 0500/0524 25010G16KT P6SM SCT045 BKN080
      TEMPO 0500/0501 VRB20G30KT 3SM TSRA SCT025CB BKN040
     FM050100 20007KT P6SM SCT060 BKN150
     FM051500 23008KT P6SM SCT060
     FM051900 19010G16KT P6SM SCT050=



Latest METAR

981
SAUS80 KWBC 051700 RRA
MTRCHS
METAR KCHS 051656Z 19006KT 10SM FEW032 SCT045 31/22 A3014 RMK AO2 SLP206
T03060217 $


USA.gov is the U.S. government's official web portal to all federal, state and local government web resources and services.